Adaven, Nevada
Current Conditions -  °F | °C
As of 8:56 AM on Tuesday 21 Oct 2014 (Local Time) from KTPH Reporting Station
Clear Clear  
Wind Chill: 53°   Ceiling: Unl
Heat Index: 53°   Visibility: 10mi
Dew Point: 23°   Wind: 13mph
Humidity: 31%   Direction: 360°N
Pressure: 30.08"   Gusts: NA
Location:  38.13°N, 115.6°W
Report Text: KTPH 211556Z AUTO 36011KT 10SM CLR 12/M05 A3008 RMK AO2 SLP144 T01171050
Loading
Personal Weather Stations






























Interactive Weather Map
Tropical Storm Tracking
New forecast layout! Learn more

10-Day Weather Forecast

Advertisements
Track Severe Weather on mobile